Main page
METAR-TAF:

METAR-TAF

Airports :

Ghriss Airport

Ghriss, Algeria

latitude: 35-12N, longitude: 000-08E, elevation: 514 m

Current weather observation

The report was made 29 minutes ago, at 12:00 UTC
Wind 9 kt from the West
Temperature 13°C
Humidity 77%
Pressure 1015 hPa
Visibility 10 km or more
Few clouds at a height of 2300 ft, Cumulonimbus.
Broken clouds at a height of 2600 ft

METAR: DAOV 081200Z 26009KT 9999 FEW023CB BKN026 13/09 Q1015

Time: 13:29 (12:29 UTC)

Forecast

The report was made 1 hour and 29 minutes ago, at 11:00 UTC
Forecast valid from 08 at 12 UTC to 08 at 21 UTC
Wind 2 kt from variable directions
Visibility 10 km or more
Scattered clouds at a height of 2000 ft
Few clouds at a height of 2300 ft, Cumulonimbus.
Temporary
from 08 at 12 UTC to 08 at 18 UTC
Visibility: 5000 m
Scattered clouds at a height of 2300 ft, Cumulonimbus.
thunderstorm, light rain

TAF: DAOV 081100Z 0812/0821 VRB02KT 9999 SCT020 FEW023CB TEMPO 0812/0818 5000 -TSRA SCT023CB

Weather observations and forecasts of more than 4000 airports (METAR and TAF reports).

The available stations are represented by yellow and red dots on the map.

Hover mouse over dot to see the name of the station.

Then click to see weather observations and forecasts.

To change the map : click on the green buttons with a black cross to zoom in, on the green button with a dash to zoom out, or on the green arrows for adjacent maps.


METAR-TAF: